sensor_id;sensor_type;location;lat;lon;timestamp;P1;durP1;ratioP1;P2;durP2;ratioP2
39860;SDS011;25529;49.346;20.886;2022-11-15T00:01:11;40.13;;;18.98;;
39860;SDS011;25529;49.346;20.886;2022-11-15T00:03:39;37.85;;;17.88;;
39860;SDS011;25529;49.346;20.886;2022-11-15T00:06:04;39.33;;;18.13;;
39860;SDS011;25529;49.346;20.886;2022-11-15T00:08:32;44.25;;;19.38;;
39860;SDS011;25529;49.346;20.886;2022-11-15T00:11:00;43.88;;;19.60;;
39860;SDS011;25529;49.346;20.886;2022-11-15T00:13:25;45.17;;;19.90;;
39860;SDS011;25529;49.346;20.886;2022-11-15T00:15:51;40.10;;;18.73;;
39860;SDS011;25529;49.346;20.886;2022-11-15T00:18:16;42.60;;;19.75;;
39860;SDS011;25529;49.346;20.886;2022-11-15T00:20:41;43.60;;;19.30;;
39860;SDS011;25529;49.346;20.886;2022-11-15T00:23:07;44.83;;;19.98;;
39860;SDS011;25529;49.346;20.886;2022-11-15T00:25:34;40.85;;;19.23;;
39860;SDS011;25529;49.346;20.886;2022-11-15T00:27:59;40.95;;;18.30;;
39860;SDS011;25529;49.346;20.886;2022-11-15T00:30:25;39.40;;;17.55;;
39860;SDS011;25529;49.346;20.886;2022-11-15T00:32:51;39.45;;;17.30;;
39860;SDS011;25529;49.346;20.886;2022-11-15T00:35:16;42.63;;;17.65;;
39860;SDS011;25529;49.346;20.886;2022-11-15T00:37:42;40.10;;;16.98;;
39860;SDS011;25529;49.346;20.886;2022-11-15T00:40:08;43.80;;;17.67;;
39860;SDS011;25529;49.346;20.886;2022-11-15T00:42:35;40.58;;;17.67;;
39860;SDS011;25529;49.346;20.886;2022-11-15T00:45:00;43.70;;;18.42;;
39860;SDS011;25529;49.346;20.886;2022-11-15T00:47:25;44.00;;;19.15;;
39860;SDS011;25529;49.346;20.886;2022-11-15T00:49:50;44.17;;;18.95;;
39860;SDS011;25529;49.346;20.886;2022-11-15T00:52:16;43.20;;;19.90;;
39860;SDS011;25529;49.346;20.886;2022-11-15T00:54:41;39.13;;;17.63;;
39860;SDS011;25529;49.346;20.886;2022-11-15T00:57:08;44.97;;;18.77;;
39860;SDS011;25529;49.346;20.886;2022-11-15T00:59:33;44.65;;;17.95;;
39860;SDS011;25529;49.346;20.886;2022-11-15T01:01:59;39.25;;;16.63;;
39860;SDS011;25529;49.346;20.886;2022-11-15T01:04:24;41.47;;;17.55;;
39860;SDS011;25529;49.346;20.886;2022-11-15T01:06:49;44.05;;;18.88;;
39860;SDS011;25529;49.346;20.886;2022-11-15T01:09:14;38.20;;;16.02;;
39860;SDS011;25529;49.346;20.886;2022-11-15T01:11:41;42.53;;;18.55;;
39860;SDS011;25529;49.346;20.886;2022-11-15T01:14:07;42.22;;;17.25;;
39860;SDS011;25529;49.346;20.886;2022-11-15T01:16:33;42.42;;;19.02;;
39860;SDS011;25529;49.346;20.886;2022-11-15T01:18:58;45.30;;;19.45;;
39860;SDS011;25529;49.346;20.886;2022-11-15T01:21:24;40.83;;;18.83;;
39860;SDS011;25529;49.346;20.886;2022-11-15T01:23:52;41.22;;;18.70;;
39860;SDS011;25529;49.346;20.886;2022-11-15T01:26:19;42.72;;;18.73;;
39860;SDS011;25529;49.346;20.886;2022-11-15T01:28:48;42.13;;;18.10;;
39860;SDS011;25529;49.346;20.886;2022-11-15T01:31:14;38.38;;;16.80;;
39860;SDS011;25529;49.346;20.886;2022-11-15T01:33:40;40.40;;;17.25;;
39860;SDS011;25529;49.346;20.886;2022-11-15T01:36:20;38.72;;;17.52;;
39860;SDS011;25529;49.346;20.886;2022-11-15T01:38:57;46.10;;;18.58;;
39860;SDS011;25529;49.346;20.886;2022-11-15T01:41:23;44.63;;;18.50;;
39860;SDS011;25529;49.346;20.886;2022-11-15T01:43:51;42.17;;;17.27;;
39860;SDS011;25529;49.346;20.886;2022-11-15T01:48:49;44.58;;;19.02;;
39860;SDS011;25529;49.346;20.886;2022-11-15T01:51:17;40.85;;;18.70;;
39860;SDS011;25529;49.346;20.886;2022-11-15T01:53:46;44.47;;;19.63;;
39860;SDS011;25529;49.346;20.886;2022-11-15T01:56:14;37.55;;;18.02;;
39860;SDS011;25529;49.346;20.886;2022-11-15T01:58:40;38.72;;;17.75;;
39860;SDS011;25529;49.346;20.886;2022-11-15T02:01:06;39.42;;;17.30;;
39860;SDS011;25529;49.346;20.886;2022-11-15T02:03:34;41.63;;;19.25;;
39860;SDS011;25529;49.346;20.886;2022-11-15T02:06:03;39.85;;;17.55;;
39860;SDS011;25529;49.346;20.886;2022-11-15T02:08:30;41.10;;;17.98;;
39860;SDS011;25529;49.346;20.886;2022-11-15T02:10:56;40.05;;;18.40;;
39860;SDS011;25529;49.346;20.886;2022-11-15T02:13:21;40.22;;;18.48;;
39860;SDS011;25529;49.346;20.886;2022-11-15T02:18:37;41.35;;;18.08;;
39860;SDS011;25529;49.346;20.886;2022-11-15T02:24:03;33.38;;;14.30;;
39860;SDS011;25529;49.346;20.886;2022-11-15T02:29:10;33.97;;;14.05;;
39860;SDS011;25529;49.346;20.886;2022-11-15T02:31:41;33.42;;;14.30;;
39860;SDS011;25529;49.346;20.886;2022-11-15T02:34:31;33.05;;;15.10;;
39860;SDS011;25529;49.346;20.886;2022-11-15T02:42:02;34.40;;;14.73;;
39860;SDS011;25529;49.346;20.886;2022-11-15T02:44:33;35.08;;;15.25;;
39860;SDS011;25529;49.346;20.886;2022-11-15T02:47:01;32.38;;;13.55;;
39860;SDS011;25529;49.346;20.886;2022-11-15T02:49:43;35.13;;;14.63;;
39860;SDS011;25529;49.346;20.886;2022-11-15T02:52:15;32.10;;;13.98;;
39860;SDS011;25529;49.346;20.886;2022-11-15T02:54:41;33.00;;;14.10;;
39860;SDS011;25529;49.346;20.886;2022-11-15T02:57:07;34.35;;;14.65;;
39860;SDS011;25529;49.346;20.886;2022-11-15T02:59:51;31.67;;;14.10;;
39860;SDS011;25529;49.346;20.886;2022-11-15T03:05:09;31.27;;;13.40;;
39860;SDS011;25529;49.346;20.886;2022-11-15T03:07:51;31.95;;;13.95;;
39860;SDS011;25529;49.346;20.886;2022-11-15T03:10:42;32.65;;;14.52;;
39860;SDS011;25529;49.346;20.886;2022-11-15T03:13:19;33.03;;;14.05;;
39860;SDS011;25529;49.346;20.886;2022-11-15T03:15:57;33.20;;;14.65;;
39860;SDS011;25529;49.346;20.886;2022-11-15T03:18:29;31.33;;;13.45;;
39860;SDS011;25529;49.346;20.886;2022-11-15T03:20:57;31.58;;;13.95;;
39860;SDS011;25529;49.346;20.886;2022-11-15T03:23:26;34.35;;;14.20;;
39860;SDS011;25529;49.346;20.886;2022-11-15T03:25:53;32.28;;;13.93;;
39860;SDS011;25529;49.346;20.886;2022-11-15T03:28:21;30.83;;;13.48;;
39860;SDS011;25529;49.346;20.886;2022-11-15T03:30:48;32.08;;;14.38;;
39860;SDS011;25529;49.346;20.886;2022-11-15T03:33:14;33.90;;;14.40;;
39860;SDS011;25529;49.346;20.886;2022-11-15T03:35:40;31.13;;;13.45;;
39860;SDS011;25529;49.346;20.886;2022-11-15T03:38:15;31.92;;;14.10;;
39860;SDS011;25529;49.346;20.886;2022-11-15T03:40:46;32.70;;;14.02;;
39860;SDS011;25529;49.346;20.886;2022-11-15T03:45:43;30.80;;;14.00;;
39860;SDS011;25529;49.346;20.886;2022-11-15T03:48:16;29.27;;;13.15;;
39860;SDS011;25529;49.346;20.886;2022-11-15T03:50:45;30.73;;;12.77;;
39860;SDS011;25529;49.346;20.886;2022-11-15T03:53:10;31.45;;;13.43;;
39860;SDS011;25529;49.346;20.886;2022-11-15T03:55:36;30.33;;;13.70;;
39860;SDS011;25529;49.346;20.886;2022-11-15T03:58:02;27.40;;;12.18;;
39860;SDS011;25529;49.346;20.886;2022-11-15T04:00:28;29.42;;;12.50;;
39860;SDS011;25529;49.346;20.886;2022-11-15T04:02:53;29.02;;;12.75;;
39860;SDS011;25529;49.346;20.886;2022-11-15T04:05:20;28.40;;;12.23;;
39860;SDS011;25529;49.346;20.886;2022-11-15T04:07:45;28.88;;;12.32;;
39860;SDS011;25529;49.346;20.886;2022-11-15T04:10:11;30.60;;;13.05;;
39860;SDS011;25529;49.346;20.886;2022-11-15T04:12:38;28.65;;;12.55;;
39860;SDS011;25529;49.346;20.886;2022-11-15T04:15:09;30.40;;;13.90;;
39860;SDS011;25529;49.346;20.886;2022-11-15T04:17:36;31.52;;;14.90;;
39860;SDS011;25529;49.346;20.886;2022-11-15T04:20:16;40.08;;;19.92;;
39860;SDS011;25529;49.346;20.886;2022-11-15T04:23:01;32.78;;;14.75;;
39860;SDS011;25529;49.346;20.886;2022-11-15T04:25:45;26.60;;;11.82;;
39860;SDS011;25529;49.346;20.886;2022-11-15T04:28:12;28.23;;;12.60;;
39860;SDS011;25529;49.346;20.886;2022-11-15T04:30:37;29.52;;;12.20;;
39860;SDS011;25529;49.346;20.886;2022-11-15T04:33:03;35.45;;;15.80;;
39860;SDS011;25529;49.346;20.886;2022-11-15T04:35:28;30.48;;;13.50;;
39860;SDS011;25529;49.346;20.886;2022-11-15T04:37:54;27.10;;;10.95;;
39860;SDS011;25529;49.346;20.886;2022-11-15T04:40:19;28.63;;;12.05;;
39860;SDS011;25529;49.346;20.886;2022-11-15T04:42:46;34.97;;;15.95;;
39860;SDS011;25529;49.346;20.886;2022-11-15T04:45:13;30.77;;;12.57;;
39860;SDS011;25529;49.346;20.886;2022-11-15T04:47:38;26.30;;;10.77;;
39860;SDS011;25529;49.346;20.886;2022-11-15T04:50:04;24.60;;;10.50;;
39860;SDS011;25529;49.346;20.886;2022-11-15T04:52:29;24.52;;;10.90;;
39860;SDS011;25529;49.346;20.886;2022-11-15T04:54:54;25.10;;;10.98;;
39860;SDS011;25529;49.346;20.886;2022-11-15T04:57:21;25.80;;;11.48;;
39860;SDS011;25529;49.346;20.886;2022-11-15T04:59:48;25.55;;;10.43;;
39860;SDS011;25529;49.346;20.886;2022-11-15T05:02:13;25.63;;;10.98;;
39860;SDS011;25529;49.346;20.886;2022-11-15T05:04:38;26.75;;;11.00;;
39860;SDS011;25529;49.346;20.886;2022-11-15T05:07:04;25.23;;;10.88;;
39860;SDS011;25529;49.346;20.886;2022-11-15T05:09:29;28.48;;;11.85;;
39860;SDS011;25529;49.346;20.886;2022-11-15T05:11:54;37.80;;;16.52;;
39860;SDS011;25529;49.346;20.886;2022-11-15T05:14:21;26.13;;;11.25;;
39860;SDS011;25529;49.346;20.886;2022-11-15T05:16:46;25.17;;;10.65;;
39860;SDS011;25529;49.346;20.886;2022-11-15T05:19:12;25.67;;;10.55;;
39860;SDS011;25529;49.346;20.886;2022-11-15T05:21:37;25.58;;;11.55;;
39860;SDS011;25529;49.346;20.886;2022-11-15T05:24:03;26.20;;;10.82;;
39860;SDS011;25529;49.346;20.886;2022-11-15T05:26:28;25.13;;;10.90;;
39860;SDS011;25529;49.346;20.886;2022-11-15T05:28:55;25.17;;;10.40;;
39860;SDS011;25529;49.346;20.886;2022-11-15T05:31:21;25.25;;;10.32;;
39860;SDS011;25529;49.346;20.886;2022-11-15T05:33:46;26.23;;;10.85;;
39860;SDS011;25529;49.346;20.886;2022-11-15T05:36:14;27.13;;;11.07;;
39860;SDS011;25529;49.346;20.886;2022-11-15T05:38:42;24.13;;;9.70;;
39860;SDS011;25529;49.346;20.886;2022-11-15T05:41:07;23.63;;;9.88;;
39860;SDS011;25529;49.346;20.886;2022-11-15T05:43:35;23.70;;;10.10;;
39860;SDS011;25529;49.346;20.886;2022-11-15T05:46:01;25.02;;;10.60;;
39860;SDS011;25529;49.346;20.886;2022-11-15T05:48:28;26.17;;;11.02;;
39860;SDS011;25529;49.346;20.886;2022-11-15T05:50:53;26.38;;;10.93;;
39860;SDS011;25529;49.346;20.886;2022-11-15T05:53:19;23.85;;;9.77;;
39860;SDS011;25529;49.346;20.886;2022-11-15T05:55:45;22.60;;;9.07;;
39860;SDS011;25529;49.346;20.886;2022-11-15T05:58:12;22.90;;;9.48;;
39860;SDS011;25529;49.346;20.886;2022-11-15T06:00:37;32.17;;;14.40;;
39860;SDS011;25529;49.346;20.886;2022-11-15T06:03:03;25.55;;;9.95;;
39860;SDS011;25529;49.346;20.886;2022-11-15T06:05:28;22.63;;;9.13;;
39860;SDS011;25529;49.346;20.886;2022-11-15T06:07:56;22.42;;;8.70;;
39860;SDS011;25529;49.346;20.886;2022-11-15T06:10:22;26.25;;;10.55;;
39860;SDS011;25529;49.346;20.886;2022-11-15T06:12:55;25.42;;;9.63;;
39860;SDS011;25529;49.346;20.886;2022-11-15T06:15:21;23.10;;;8.80;;
39860;SDS011;25529;49.346;20.886;2022-11-15T06:17:46;22.48;;;8.75;;
39860;SDS011;25529;49.346;20.886;2022-11-15T06:20:11;23.13;;;9.35;;
39860;SDS011;25529;49.346;20.886;2022-11-15T06:22:37;24.20;;;10.00;;
39860;SDS011;25529;49.346;20.886;2022-11-15T06:25:02;22.88;;;9.23;;
39860;SDS011;25529;49.346;20.886;2022-11-15T06:27:29;25.17;;;10.40;;
39860;SDS011;25529;49.346;20.886;2022-11-15T06:29:54;24.33;;;10.18;;
39860;SDS011;25529;49.346;20.886;2022-11-15T06:32:19;22.63;;;9.48;;
39860;SDS011;25529;49.346;20.886;2022-11-15T06:34:45;23.17;;;8.88;;
39860;SDS011;25529;49.346;20.886;2022-11-15T06:37:10;22.15;;;9.57;;
39860;SDS011;25529;49.346;20.886;2022-11-15T06:39:35;26.35;;;10.88;;
39860;SDS011;25529;49.346;20.886;2022-11-15T06:42:02;22.42;;;8.80;;
39860;SDS011;25529;49.346;20.886;2022-11-15T06:44:28;22.90;;;8.98;;
39860;SDS011;25529;49.346;20.886;2022-11-15T06:46:54;21.25;;;8.40;;
39860;SDS011;25529;49.346;20.886;2022-11-15T06:49:19;24.52;;;9.85;;
39860;SDS011;25529;49.346;20.886;2022-11-15T06:51:44;45.10;;;21.70;;
39860;SDS011;25529;49.346;20.886;2022-11-15T06:54:09;30.60;;;14.77;;
39860;SDS011;25529;49.346;20.886;2022-11-15T06:56:36;31.55;;;14.80;;
39860;SDS011;25529;49.346;20.886;2022-11-15T06:59:03;51.50;;;26.10;;
39860;SDS011;25529;49.346;20.886;2022-11-15T07:01:28;26.25;;;11.43;;
39860;SDS011;25529;49.346;20.886;2022-11-15T07:03:53;35.28;;;16.55;;
39860;SDS011;25529;49.346;20.886;2022-11-15T07:06:19;31.10;;;13.70;;
39860;SDS011;25529;49.346;20.886;2022-11-15T07:08:44;22.48;;;9.10;;
39860;SDS011;25529;49.346;20.886;2022-11-15T07:11:11;24.52;;;10.15;;
39860;SDS011;25529;49.346;20.886;2022-11-15T07:13:38;21.60;;;8.43;;
39860;SDS011;25529;49.346;20.886;2022-11-15T07:16:07;22.15;;;8.77;;
39860;SDS011;25529;49.346;20.886;2022-11-15T07:18:34;25.67;;;10.45;;
39860;SDS011;25529;49.346;20.886;2022-11-15T07:21:06;32.78;;;14.63;;
39860;SDS011;25529;49.346;20.886;2022-11-15T07:23:32;79.15;;;36.13;;
39860;SDS011;25529;49.346;20.886;2022-11-15T07:25:57;45.75;;;21.50;;
39860;SDS011;25529;49.346;20.886;2022-11-15T07:28:27;32.80;;;15.18;;
39860;SDS011;25529;49.346;20.886;2022-11-15T07:30:52;48.90;;;22.63;;
39860;SDS011;25529;49.346;20.886;2022-11-15T07:33:17;33.78;;;15.05;;
39860;SDS011;25529;49.346;20.886;2022-11-15T07:35:43;39.00;;;17.30;;
39860;SDS011;25529;49.346;20.886;2022-11-15T07:38:11;62.25;;;28.77;;
39860;SDS011;25529;49.346;20.886;2022-11-15T07:40:37;43.65;;;19.17;;
39860;SDS011;25529;49.346;20.886;2022-11-15T07:43:04;30.48;;;13.60;;
39860;SDS011;25529;49.346;20.886;2022-11-15T07:45:29;28.02;;;12.27;;
39860;SDS011;25529;49.346;20.886;2022-11-15T07:47:55;33.63;;;14.13;;
39860;SDS011;25529;49.346;20.886;2022-11-15T07:50:21;41.13;;;20.00;;
39860;SDS011;25529;49.346;20.886;2022-11-15T07:52:46;30.10;;;13.95;;
39860;SDS011;25529;49.346;20.886;2022-11-15T07:55:13;22.15;;;8.90;;
39860;SDS011;25529;49.346;20.886;2022-11-15T07:57:39;22.35;;;9.88;;
39860;SDS011;25529;49.346;20.886;2022-11-15T08:00:05;25.77;;;12.13;;
39860;SDS011;25529;49.346;20.886;2022-11-15T08:02:31;25.92;;;11.70;;
39860;SDS011;25529;49.346;20.886;2022-11-15T08:04:56;25.20;;;11.13;;
39860;SDS011;25529;49.346;20.886;2022-11-15T08:07:21;22.90;;;9.50;;
39860;SDS011;25529;49.346;20.886;2022-11-15T08:09:48;22.52;;;10.15;;
39860;SDS011;25529;49.346;20.886;2022-11-15T08:12:15;24.08;;;10.32;;
39860;SDS011;25529;49.346;20.886;2022-11-15T08:14:40;23.35;;;9.77;;
39860;SDS011;25529;49.346;20.886;2022-11-15T08:17:06;48.70;;;27.98;;
39860;SDS011;25529;49.346;20.886;2022-11-15T08:19:31;32.75;;;17.65;;
39860;SDS011;25529;49.346;20.886;2022-11-15T08:21:56;23.90;;;10.93;;
39860;SDS011;25529;49.346;20.886;2022-11-15T08:24:23;24.88;;;10.57;;
39860;SDS011;25529;49.346;20.886;2022-11-15T08:26:50;23.13;;;9.63;;
39860;SDS011;25529;49.346;20.886;2022-11-15T08:29:15;24.15;;;10.18;;
39860;SDS011;25529;49.346;20.886;2022-11-15T08:31:40;23.92;;;9.63;;
39860;SDS011;25529;49.346;20.886;2022-11-15T08:34:06;26.05;;;11.40;;
39860;SDS011;25529;49.346;20.886;2022-11-15T08:36:31;24.10;;;10.70;;
39860;SDS011;25529;49.346;20.886;2022-11-15T08:38:59;23.40;;;9.95;;
39860;SDS011;25529;49.346;20.886;2022-11-15T08:41:36;23.27;;;9.55;;
39860;SDS011;25529;49.346;20.886;2022-11-15T08:44:01;23.27;;;9.75;;
39860;SDS011;25529;49.346;20.886;2022-11-15T08:46:27;23.48;;;10.02;;
39860;SDS011;25529;49.346;20.886;2022-11-15T08:48:52;23.75;;;10.70;;
39860;SDS011;25529;49.346;20.886;2022-11-15T08:51:17;24.35;;;10.48;;
39860;SDS011;25529;49.346;20.886;2022-11-15T08:53:44;26.67;;;10.57;;
39860;SDS011;25529;49.346;20.886;2022-11-15T08:56:12;25.95;;;11.73;;
39860;SDS011;25529;49.346;20.886;2022-11-15T08:58:37;26.27;;;11.27;;
39860;SDS011;25529;49.346;20.886;2022-11-15T09:01:03;26.83;;;11.10;;
39860;SDS011;25529;49.346;20.886;2022-11-15T09:03:31;26.25;;;11.73;;
39860;SDS011;25529;49.346;20.886;2022-11-15T09:05:57;27.15;;;11.07;;
39860;SDS011;25529;49.346;20.886;2022-11-15T09:08:24;27.15;;;11.75;;
39860;SDS011;25529;49.346;20.886;2022-11-15T09:10:51;46.20;;;22.40;;
39860;SDS011;25529;49.346;20.886;2022-11-15T09:13:16;32.97;;;14.30;;
39860;SDS011;25529;49.346;20.886;2022-11-15T09:15:42;29.50;;;15.23;;
39860;SDS011;25529;49.346;20.886;2022-11-15T09:18:07;29.42;;;14.77;;
39860;SDS011;25529;49.346;20.886;2022-11-15T09:20:32;27.40;;;13.98;;
39860;SDS011;25529;49.346;20.886;2022-11-15T09:23:03;26.08;;;11.57;;
39860;SDS011;25529;49.346;20.886;2022-11-15T09:25:29;26.35;;;12.00;;
39860;SDS011;25529;49.346;20.886;2022-11-15T09:27:54;24.60;;;11.13;;
39860;SDS011;25529;49.346;20.886;2022-11-15T09:30:20;25.63;;;11.75;;
39860;SDS011;25529;49.346;20.886;2022-11-15T09:32:45;25.13;;;10.98;;
39860;SDS011;25529;49.346;20.886;2022-11-15T09:35:10;24.48;;;11.27;;
39860;SDS011;25529;49.346;20.886;2022-11-15T09:37:39;43.35;;;23.60;;
39860;SDS011;25529;49.346;20.886;2022-11-15T09:40:06;26.52;;;11.45;;
39860;SDS011;25529;49.346;20.886;2022-11-15T09:51:34;28.43;;;12.53;;
39860;SDS011;25529;49.346;20.886;2022-11-15T09:54:07;25.70;;;11.32;;
39860;SDS011;25529;49.346;20.886;2022-11-15T09:57:12;25.87;;;11.30;;
39860;SDS011;25529;49.346;20.886;2022-11-15T10:00:04;27.00;;;12.60;;
39860;SDS011;25529;49.346;20.886;2022-11-15T10:05:07;25.95;;;11.60;;
39860;SDS011;25529;49.346;20.886;2022-11-15T10:10:13;26.05;;;11.50;;
39860;SDS011;25529;49.346;20.886;2022-11-15T10:12:40;24.65;;;10.55;;
39860;SDS011;25529;49.346;20.886;2022-11-15T10:15:13;23.60;;;10.55;;
39860;SDS011;25529;49.346;20.886;2022-11-15T10:20:27;24.23;;;10.25;;
39860;SDS011;25529;49.346;20.886;2022-11-15T10:22:53;22.48;;;9.43;;
39860;SDS011;25529;49.346;20.886;2022-11-15T10:30:35;27.38;;;12.00;;
39860;SDS011;25529;49.346;20.886;2022-11-15T10:35:39;29.08;;;12.88;;
39860;SDS011;25529;49.346;20.886;2022-11-15T10:38:05;27.15;;;13.18;;
39860;SDS011;25529;49.346;20.886;2022-11-15T10:40:32;27.55;;;13.43;;
39860;SDS011;25529;49.346;20.886;2022-11-15T10:45:35;31.70;;;15.48;;
39860;SDS011;25529;49.346;20.886;2022-11-15T10:50:39;26.85;;;12.20;;
39860;SDS011;25529;49.346;20.886;2022-11-15T10:53:13;25.80;;;11.80;;
39860;SDS011;25529;49.346;20.886;2022-11-15T10:55:40;27.42;;;11.95;;
39860;SDS011;25529;49.346;20.886;2022-11-15T10:58:19;26.70;;;12.00;;
39860;SDS011;25529;49.346;20.886;2022-11-15T11:00:46;25.63;;;11.55;;
39860;SDS011;25529;49.346;20.886;2022-11-15T11:05:52;26.27;;;12.15;;
39860;SDS011;25529;49.346;20.886;2022-11-15T11:08:27;28.77;;;12.07;;
39860;SDS011;25529;49.346;20.886;2022-11-15T11:10:53;25.52;;;12.13;;
39860;SDS011;25529;49.346;20.886;2022-11-15T11:13:32;25.92;;;11.65;;
39860;SDS011;25529;49.346;20.886;2022-11-15T11:16:16;26.73;;;11.70;;
39860;SDS011;25529;49.346;20.886;2022-11-15T11:27:08;25.33;;;10.65;;
39860;SDS011;25529;49.346;20.886;2022-11-15T11:32:07;22.75;;;9.48;;
39860;SDS011;25529;49.346;20.886;2022-11-15T11:40:01;23.35;;;9.93;;
39860;SDS011;25529;49.346;20.886;2022-11-15T11:45:17;25.73;;;10.75;;
39860;SDS011;25529;49.346;20.886;2022-11-15T11:47:46;23.63;;;9.57;;
39860;SDS011;25529;49.346;20.886;2022-11-15T11:50:23;24.35;;;9.98;;
39860;SDS011;25529;49.346;20.886;2022-11-15T11:53:02;25.67;;;10.23;;
39860;SDS011;25529;49.346;20.886;2022-11-15T11:55:37;23.67;;;10.07;;
39860;SDS011;25529;49.346;20.886;2022-11-15T12:00:33;24.77;;;9.57;;
39860;SDS011;25529;49.346;20.886;2022-11-15T12:03:14;24.15;;;10.30;;
39860;SDS011;25529;49.346;20.886;2022-11-15T12:05:44;26.55;;;11.30;;
39860;SDS011;25529;49.346;20.886;2022-11-15T12:11:00;29.25;;;12.32;;
39860;SDS011;25529;49.346;20.886;2022-11-15T12:13:26;29.73;;;12.90;;
39860;SDS011;25529;49.346;20.886;2022-11-15T12:15:59;27.45;;;12.63;;
39860;SDS011;25529;49.346;20.886;2022-11-15T12:18:27;26.15;;;11.95;;
39860;SDS011;25529;49.346;20.886;2022-11-15T12:20:57;28.08;;;12.68;;
39860;SDS011;25529;49.346;20.886;2022-11-15T12:23:28;26.75;;;12.38;;
39860;SDS011;25529;49.346;20.886;2022-11-15T12:33:38;26.88;;;12.30;;
39860;SDS011;25529;49.346;20.886;2022-11-15T12:36:08;27.02;;;12.18;;
39860;SDS011;25529;49.346;20.886;2022-11-15T12:41:18;27.15;;;12.35;;
39860;SDS011;25529;49.346;20.886;2022-11-15T12:43:46;29.42;;;12.10;;
39860;SDS011;25529;49.346;20.886;2022-11-15T12:48:59;25.08;;;11.35;;
39860;SDS011;25529;49.346;20.886;2022-11-15T13:02:19;24.52;;;10.55;;
39860;SDS011;25529;49.346;20.886;2022-11-15T13:04:46;24.23;;;10.63;;
39860;SDS011;25529;49.346;20.886;2022-11-15T13:07:54;24.33;;;10.45;;
39860;SDS011;25529;49.346;20.886;2022-11-15T13:13:41;27.90;;;11.18;;
39860;SDS011;25529;49.346;20.886;2022-11-15T13:16:04;28.92;;;12.25;;
39860;SDS011;25529;49.346;20.886;2022-11-15T13:18:31;27.70;;;12.65;;
39860;SDS011;25529;49.346;20.886;2022-11-15T13:20:57;33.50;;;14.60;;
39860;SDS011;25529;49.346;20.886;2022-11-15T13:23:24;30.83;;;16.05;;
39860;SDS011;25529;49.346;20.886;2022-11-15T13:28:49;32.42;;;16.05;;
39860;SDS011;25529;49.346;20.886;2022-11-15T13:31:27;25.23;;;10.40;;
39860;SDS011;25529;49.346;20.886;2022-11-15T13:33:56;24.25;;;9.73;;
39860;SDS011;25529;49.346;20.886;2022-11-15T13:36:24;24.33;;;10.00;;
39860;SDS011;25529;49.346;20.886;2022-11-15T13:38:54;25.73;;;9.20;;
39860;SDS011;25529;49.346;20.886;2022-11-15T13:41:20;22.55;;;8.80;;
39860;SDS011;25529;49.346;20.886;2022-11-15T13:43:46;21.42;;;8.57;;
39860;SDS011;25529;49.346;20.886;2022-11-15T13:46:24;22.65;;;8.98;;
39860;SDS011;25529;49.346;20.886;2022-11-15T13:48:55;23.83;;;9.02;;
39860;SDS011;25529;49.346;20.886;2022-11-15T13:56:37;23.30;;;8.50;;
39860;SDS011;25529;49.346;20.886;2022-11-15T13:59:13;21.65;;;8.52;;
39860;SDS011;25529;49.346;20.886;2022-11-15T14:01:40;21.75;;;8.80;;
39860;SDS011;25529;49.346;20.886;2022-11-15T14:04:09;23.73;;;9.02;;
39860;SDS011;25529;49.346;20.886;2022-11-15T14:06:42;23.25;;;9.00;;
39860;SDS011;25529;49.346;20.886;2022-11-15T14:11:35;25.92;;;10.32;;
39860;SDS011;25529;49.346;20.886;2022-11-15T14:16:38;25.48;;;10.15;;
39860;SDS011;25529;49.346;20.886;2022-11-15T14:19:04;28.10;;;10.55;;
39860;SDS011;25529;49.346;20.886;2022-11-15T14:21:30;26.80;;;11.05;;
39860;SDS011;25529;49.346;20.886;2022-11-15T14:26:40;26.75;;;11.20;;
39860;SDS011;25529;49.346;20.886;2022-11-15T14:32:14;27.77;;;12.10;;
39860;SDS011;25529;49.346;20.886;2022-11-15T14:34:41;26.38;;;11.48;;
39860;SDS011;25529;49.346;20.886;2022-11-15T14:37:10;29.58;;;12.43;;
39860;SDS011;25529;49.346;20.886;2022-11-15T14:39:41;27.58;;;11.95;;
39860;SDS011;25529;49.346;20.886;2022-11-15T14:42:08;29.83;;;11.35;;
39860;SDS011;25529;49.346;20.886;2022-11-15T14:47:36;26.75;;;11.30;;
39860;SDS011;25529;49.346;20.886;2022-11-15T14:50:03;28.77;;;12.65;;
39860;SDS011;25529;49.346;20.886;2022-11-15T14:52:29;28.63;;;13.00;;
39860;SDS011;25529;49.346;20.886;2022-11-15T14:55:02;29.50;;;12.57;;
39860;SDS011;25529;49.346;20.886;2022-11-15T14:57:29;29.52;;;12.77;;
39860;SDS011;25529;49.346;20.886;2022-11-15T14:59:56;28.63;;;12.07;;
39860;SDS011;25529;49.346;20.886;2022-11-15T15:02:23;30.75;;;12.88;;
39860;SDS011;25529;49.346;20.886;2022-11-15T15:04:49;30.25;;;13.05;;
39860;SDS011;25529;49.346;20.886;2022-11-15T15:07:15;29.15;;;13.25;;
39860;SDS011;25529;49.346;20.886;2022-11-15T15:09:40;30.63;;;13.38;;
39860;SDS011;25529;49.346;20.886;2022-11-15T15:12:17;29.52;;;12.52;;
39860;SDS011;25529;49.346;20.886;2022-11-15T15:14:43;29.60;;;14.00;;
39860;SDS011;25529;49.346;20.886;2022-11-15T15:17:09;29.92;;;13.85;;
39860;SDS011;25529;49.346;20.886;2022-11-15T15:19:37;31.15;;;14.30;;
39860;SDS011;25529;49.346;20.886;2022-11-15T15:22:02;30.98;;;13.80;;
39860;SDS011;25529;49.346;20.886;2022-11-15T15:24:28;31.20;;;13.73;;
39860;SDS011;25529;49.346;20.886;2022-11-15T15:26:54;30.23;;;13.50;;
39860;SDS011;25529;49.346;20.886;2022-11-15T15:29:19;29.75;;;13.10;;
39860;SDS011;25529;49.346;20.886;2022-11-15T15:31:45;29.85;;;12.88;;
39860;SDS011;25529;49.346;20.886;2022-11-15T15:34:18;27.85;;;12.93;;
39860;SDS011;25529;49.346;20.886;2022-11-15T15:36:43;30.33;;;12.65;;
39860;SDS011;25529;49.346;20.886;2022-11-15T15:39:09;30.00;;;13.05;;
39860;SDS011;25529;49.346;20.886;2022-11-15T15:41:36;26.73;;;11.55;;
39860;SDS011;25529;49.346;20.886;2022-11-15T15:44:01;28.75;;;13.13;;
39860;SDS011;25529;49.346;20.886;2022-11-15T15:46:27;29.73;;;11.88;;
39860;SDS011;25529;49.346;20.886;2022-11-15T15:48:52;27.42;;;11.80;;
39860;SDS011;25529;49.346;20.886;2022-11-15T15:51:18;30.63;;;12.95;;
39860;SDS011;25529;49.346;20.886;2022-11-15T15:53:43;32.15;;;13.40;;
39860;SDS011;25529;49.346;20.886;2022-11-15T15:56:08;26.88;;;12.05;;
39860;SDS011;25529;49.346;20.886;2022-11-15T16:01:37;29.15;;;12.48;;
39860;SDS011;25529;49.346;20.886;2022-11-15T16:04:02;55.40;;;34.95;;
39860;SDS011;25529;49.346;20.886;2022-11-15T16:09:30;68.83;;;38.57;;
39860;SDS011;25529;49.346;20.886;2022-11-15T16:12:14;38.67;;;19.70;;
39860;SDS011;25529;49.346;20.886;2022-11-15T16:14:41;36.53;;;16.92;;
39860;SDS011;25529;49.346;20.886;2022-11-15T16:17:17;38.38;;;18.25;;
39860;SDS011;25529;49.346;20.886;2022-11-15T16:19:43;38.88;;;19.65;;
39860;SDS011;25529;49.346;20.886;2022-11-15T16:22:09;40.47;;;19.17;;
39860;SDS011;25529;49.346;20.886;2022-11-15T16:24:34;41.53;;;19.67;;
39860;SDS011;25529;49.346;20.886;2022-11-15T16:26:59;40.67;;;19.60;;
39860;SDS011;25529;49.346;20.886;2022-11-15T16:29:26;43.10;;;21.48;;